sensor_id;sensor_type;location;lat;lon;timestamp;temperature;humidity
44863;DHT22;30597;49.628;10.850;2023-11-19T00:02:11;20.60;58.20
44863;DHT22;30597;49.628;10.850;2023-11-19T00:04:37;20.70;58.30
44863;DHT22;30597;49.628;10.850;2023-11-19T00:07:06;20.70;58.40
44863;DHT22;30597;49.628;10.850;2023-11-19T00:09:36;20.60;58.00
44863;DHT22;30597;49.628;10.850;2023-11-19T00:12:03;20.70;58.20
44863;DHT22;30597;49.628;10.850;2023-11-19T00:14:30;20.60;58.20
44863;DHT22;30597;49.628;10.850;2023-11-19T00:16:56;20.60;58.30
44863;DHT22;30597;49.628;10.850;2023-11-19T00:19:21;20.60;58.30
44863;DHT22;30597;49.628;10.850;2023-11-19T00:21:47;20.70;58.40
44863;DHT22;30597;49.628;10.850;2023-11-19T00:24:13;20.60;58.40
44863;DHT22;30597;49.628;10.850;2023-11-19T00:26:41;20.60;58.50
44863;DHT22;30597;49.628;10.850;2023-11-19T00:29:08;20.60;58.60
44863;DHT22;30597;49.628;10.850;2023-11-19T00:31:34;20.60;58.60
44863;DHT22;30597;49.628;10.850;2023-11-19T00:34:00;20.70;58.80
44863;DHT22;30597;49.628;10.850;2023-11-19T00:36:27;20.70;58.80
44863;DHT22;30597;49.628;10.850;2023-11-19T00:38:52;20.60;58.70
44863;DHT22;30597;49.628;10.850;2023-11-19T00:41:18;20.60;58.70
44863;DHT22;30597;49.628;10.850;2023-11-19T00:43:44;20.70;58.90
44863;DHT22;30597;49.628;10.850;2023-11-19T00:46:09;20.60;58.80
44863;DHT22;30597;49.628;10.850;2023-11-19T00:48:36;20.60;58.60
44863;DHT22;30597;49.628;10.850;2023-11-19T00:51:02;20.70;58.80
44863;DHT22;30597;49.628;10.850;2023-11-19T00:53:29;20.70;58.70
44863;DHT22;30597;49.628;10.850;2023-11-19T00:55:55;20.80;58.70
44863;DHT22;30597;49.628;10.850;2023-11-19T00:58:20;20.70;58.70
44863;DHT22;30597;49.628;10.850;2023-11-19T01:00:46;20.70;58.80
44863;DHT22;30597;49.628;10.850;2023-11-19T01:03:12;20.60;58.80
44863;DHT22;30597;49.628;10.850;2023-11-19T01:05:38;20.70;58.90
44863;DHT22;30597;49.628;10.850;2023-11-19T01:08:04;20.60;58.90
44863;DHT22;30597;49.628;10.850;2023-11-19T01:10:30;20.60;59.00
44863;DHT22;30597;49.628;10.850;2023-11-19T01:12:56;20.50;58.90
44863;DHT22;30597;49.628;10.850;2023-11-19T01:15:21;20.50;59.00
44863;DHT22;30597;49.628;10.850;2023-11-19T01:17:48;20.50;59.00
44863;DHT22;30597;49.628;10.850;2023-11-19T01:20:14;20.50;59.00
44863;DHT22;30597;49.628;10.850;2023-11-19T01:22:40;20.60;59.10
44863;DHT22;30597;49.628;10.850;2023-11-19T01:25:06;20.60;59.10
44863;DHT22;30597;49.628;10.850;2023-11-19T01:27:32;20.50;59.10
44863;DHT22;30597;49.628;10.850;2023-11-19T01:29:59;20.40;59.00
44863;DHT22;30597;49.628;10.850;2023-11-19T01:32:27;20.40;59.00
44863;DHT22;30597;49.628;10.850;2023-11-19T01:34:52;20.40;59.00
44863;DHT22;30597;49.628;10.850;2023-11-19T01:37:18;20.40;59.10
44863;DHT22;30597;49.628;10.850;2023-11-19T01:39:44;20.50;59.10
44863;DHT22;30597;49.628;10.850;2023-11-19T01:42:10;20.40;59.20
44863;DHT22;30597;49.628;10.850;2023-11-19T01:44:37;20.50;59.30
44863;DHT22;30597;49.628;10.850;2023-11-19T01:47:03;20.40;59.30
44863;DHT22;30597;49.628;10.850;2023-11-19T01:49:30;20.40;59.30
44863;DHT22;30597;49.628;10.850;2023-11-19T01:51:57;20.40;59.40
44863;DHT22;30597;49.628;10.850;2023-11-19T01:54:23;20.40;59.50
44863;DHT22;30597;49.628;10.850;2023-11-19T01:56:49;20.40;59.30
44863;DHT22;30597;49.628;10.850;2023-11-19T01:59:16;20.30;59.40
44863;DHT22;30597;49.628;10.850;2023-11-19T02:01:42;20.40;59.60
44863;DHT22;30597;49.628;10.850;2023-11-19T02:04:08;20.30;59.40
44863;DHT22;30597;49.628;10.850;2023-11-19T02:06:37;20.30;59.40
44863;DHT22;30597;49.628;10.850;2023-11-19T02:09:05;20.30;59.60
44863;DHT22;30597;49.628;10.850;2023-11-19T02:11:36;20.30;59.60
44863;DHT22;30597;49.628;10.850;2023-11-19T02:14:02;20.30;59.70
44863;DHT22;30597;49.628;10.850;2023-11-19T02:16:29;20.30;59.60
44863;DHT22;30597;49.628;10.850;2023-11-19T02:18:55;20.20;59.60
44863;DHT22;30597;49.628;10.850;2023-11-19T02:21:20;20.30;59.70
44863;DHT22;30597;49.628;10.850;2023-11-19T02:23:46;20.20;59.50
44863;DHT22;30597;49.628;10.850;2023-11-19T02:26:17;20.20;59.60
44863;DHT22;30597;49.628;10.850;2023-11-19T02:28:43;20.20;59.80
44863;DHT22;30597;49.628;10.850;2023-11-19T02:31:10;20.20;59.70
44863;DHT22;30597;49.628;10.850;2023-11-19T02:33:39;20.20;59.80
44863;DHT22;30597;49.628;10.850;2023-11-19T02:36:06;20.20;59.90
44863;DHT22;30597;49.628;10.850;2023-11-19T02:38:35;20.20;59.80
44863;DHT22;30597;49.628;10.850;2023-11-19T02:41:05;20.20;59.90
44863;DHT22;30597;49.628;10.850;2023-11-19T02:43:32;20.20;59.90
44863;DHT22;30597;49.628;10.850;2023-11-19T02:46:01;20.20;59.90
44863;DHT22;30597;49.628;10.850;2023-11-19T02:48:26;20.20;60.00
44863;DHT22;30597;49.628;10.850;2023-11-19T02:50:52;20.20;59.80
44863;DHT22;30597;49.628;10.850;2023-11-19T02:53:18;20.30;59.90
44863;DHT22;30597;49.628;10.850;2023-11-19T02:55:47;20.20;59.90
44863;DHT22;30597;49.628;10.850;2023-11-19T02:58:15;20.20;59.90
44863;DHT22;30597;49.628;10.850;2023-11-19T03:00:49;20.20;60.10
44863;DHT22;30597;49.628;10.850;2023-11-19T03:03:26;20.10;60.10
44863;DHT22;30597;49.628;10.850;2023-11-19T03:06:04;20.10;60.10
44863;DHT22;30597;49.628;10.850;2023-11-19T03:08:30;20.10;60.10
44863;DHT22;30597;49.628;10.850;2023-11-19T03:10:55;20.10;60.00
44863;DHT22;30597;49.628;10.850;2023-11-19T03:13:21;20.20;60.00
44863;DHT22;30597;49.628;10.850;2023-11-19T03:15:47;20.10;60.10
44863;DHT22;30597;49.628;10.850;2023-11-19T03:18:13;20.20;60.10
44863;DHT22;30597;49.628;10.850;2023-11-19T03:20:38;20.20;60.10
44863;DHT22;30597;49.628;10.850;2023-11-19T03:23:04;20.10;60.00
44863;DHT22;30597;49.628;10.850;2023-11-19T03:25:31;20.20;60.10
44863;DHT22;30597;49.628;10.850;2023-11-19T03:28:02;20.10;60.10
44863;DHT22;30597;49.628;10.850;2023-11-19T03:30:28;20.10;60.10
44863;DHT22;30597;49.628;10.850;2023-11-19T03:32:58;20.10;60.00
44863;DHT22;30597;49.628;10.850;2023-11-19T03:35:24;20.10;60.10
44863;DHT22;30597;49.628;10.850;2023-11-19T03:37:50;20.10;60.00
44863;DHT22;30597;49.628;10.850;2023-11-19T03:40:16;20.00;60.00
44863;DHT22;30597;49.628;10.850;2023-11-19T03:42:42;20.00;60.00
44863;DHT22;30597;49.628;10.850;2023-11-19T03:45:08;20.00;60.00
44863;DHT22;30597;49.628;10.850;2023-11-19T03:47:34;20.00;60.00
44863;DHT22;30597;49.628;10.850;2023-11-19T03:50:01;20.10;60.30
44863;DHT22;30597;49.628;10.850;2023-11-19T03:52:27;20.00;60.20
44863;DHT22;30597;49.628;10.850;2023-11-19T03:54:52;20.00;59.10
44863;DHT22;30597;49.628;10.850;2023-11-19T03:57:20;20.00;59.40
44863;DHT22;30597;49.628;10.850;2023-11-19T03:59:46;20.00;59.60
44863;DHT22;30597;49.628;10.850;2023-11-19T04:02:12;20.00;59.70
44863;DHT22;30597;49.628;10.850;2023-11-19T04:04:38;20.00;59.70
44863;DHT22;30597;49.628;10.850;2023-11-19T04:07:05;20.00;59.80
44863;DHT22;30597;49.628;10.850;2023-11-19T04:09:30;20.00;59.90
44863;DHT22;30597;49.628;10.850;2023-11-19T04:11:58;20.00;59.90
44863;DHT22;30597;49.628;10.850;2023-11-19T04:14:24;20.00;60.00
44863;DHT22;30597;49.628;10.850;2023-11-19T04:16:49;20.00;60.00
44863;DHT22;30597;49.628;10.850;2023-11-19T04:19:16;20.10;60.10
44863;DHT22;30597;49.628;10.850;2023-11-19T04:21:42;20.00;60.00
44863;DHT22;30597;49.628;10.850;2023-11-19T04:24:09;20.00;60.20
44863;DHT22;30597;49.628;10.850;2023-11-19T04:26:40;20.00;60.30
44863;DHT22;30597;49.628;10.850;2023-11-19T04:29:08;20.10;60.40
44863;DHT22;30597;49.628;10.850;2023-11-19T04:31:34;20.10;60.50
44863;DHT22;30597;49.628;10.850;2023-11-19T04:33:59;20.00;60.20
44863;DHT22;30597;49.628;10.850;2023-11-19T04:36:26;20.10;60.50
44863;DHT22;30597;49.628;10.850;2023-11-19T04:38:51;20.00;60.30
44863;DHT22;30597;49.628;10.850;2023-11-19T04:41:17;20.10;60.50
44863;DHT22;30597;49.628;10.850;2023-11-19T04:43:43;20.00;61.20
44863;DHT22;30597;49.628;10.850;2023-11-19T04:46:09;20.00;60.40
44863;DHT22;30597;49.628;10.850;2023-11-19T04:48:35;20.10;60.40
44863;DHT22;30597;49.628;10.850;2023-11-19T04:51:01;20.00;60.40
44863;DHT22;30597;49.628;10.850;2023-11-19T04:53:26;20.00;60.30
44863;DHT22;30597;49.628;10.850;2023-11-19T04:55:52;20.00;60.50
44863;DHT22;30597;49.628;10.850;2023-11-19T04:58:17;20.00;60.50
44863;DHT22;30597;49.628;10.850;2023-11-19T05:00:44;20.00;60.60
44863;DHT22;30597;49.628;10.850;2023-11-19T05:03:10;19.90;60.60
44863;DHT22;30597;49.628;10.850;2023-11-19T05:05:36;19.90;60.60
44863;DHT22;30597;49.628;10.850;2023-11-19T05:08:02;20.00;60.60
44863;DHT22;30597;49.628;10.850;2023-11-19T05:10:27;20.00;60.70
44863;DHT22;30597;49.628;10.850;2023-11-19T05:12:53;20.00;60.60
44863;DHT22;30597;49.628;10.850;2023-11-19T05:15:21;19.90;60.70
44863;DHT22;30597;49.628;10.850;2023-11-19T05:17:47;19.90;60.60
44863;DHT22;30597;49.628;10.850;2023-11-19T05:20:12;20.00;60.80
44863;DHT22;30597;49.628;10.850;2023-11-19T05:22:42;20.00;60.90
44863;DHT22;30597;49.628;10.850;2023-11-19T05:25:08;20.00;60.90
44863;DHT22;30597;49.628;10.850;2023-11-19T05:27:35;20.00;60.90
44863;DHT22;30597;49.628;10.850;2023-11-19T05:30:02;19.90;60.90
44863;DHT22;30597;49.628;10.850;2023-11-19T05:32:28;19.90;60.90
44863;DHT22;30597;49.628;10.850;2023-11-19T05:34:53;20.00;60.90
44863;DHT22;30597;49.628;10.850;2023-11-19T05:37:19;19.90;60.70
44863;DHT22;30597;49.628;10.850;2023-11-19T05:39:45;20.00;60.90
44863;DHT22;30597;49.628;10.850;2023-11-19T05:42:11;20.00;60.90
44863;DHT22;30597;49.628;10.850;2023-11-19T05:44:36;19.90;60.70
44863;DHT22;30597;49.628;10.850;2023-11-19T05:47:03;19.90;60.70
44863;DHT22;30597;49.628;10.850;2023-11-19T05:49:29;19.90;60.50
44863;DHT22;30597;49.628;10.850;2023-11-19T05:51:54;20.00;60.80
44863;DHT22;30597;49.628;10.850;2023-11-19T05:54:21;19.90;60.70
44863;DHT22;30597;49.628;10.850;2023-11-19T05:56:48;20.00;60.70
44863;DHT22;30597;49.628;10.850;2023-11-19T05:59:14;19.90;60.80
44863;DHT22;30597;49.628;10.850;2023-11-19T06:01:43;20.00;60.80
44863;DHT22;30597;49.628;10.850;2023-11-19T06:04:10;19.90;60.80
44863;DHT22;30597;49.628;10.850;2023-11-19T06:06:36;20.00;60.80
44863;DHT22;30597;49.628;10.850;2023-11-19T06:09:02;20.00;60.80
44863;DHT22;30597;49.628;10.850;2023-11-19T06:11:28;19.90;60.80
44863;DHT22;30597;49.628;10.850;2023-11-19T06:13:54;19.90;60.60
44863;DHT22;30597;49.628;10.850;2023-11-19T06:16:20;20.00;60.70
44863;DHT22;30597;49.628;10.850;2023-11-19T06:18:45;19.90;60.60
44863;DHT22;30597;49.628;10.850;2023-11-19T06:21:12;19.90;60.70
44863;DHT22;30597;49.628;10.850;2023-11-19T06:23:37;19.90;60.90
44863;DHT22;30597;49.628;10.850;2023-11-19T06:26:03;19.90;60.70
44863;DHT22;30597;49.628;10.850;2023-11-19T06:28:30;19.90;60.80
44863;DHT22;30597;49.628;10.850;2023-11-19T06:30:56;19.90;60.90
44863;DHT22;30597;49.628;10.850;2023-11-19T06:33:23;20.00;60.80
44863;DHT22;30597;49.628;10.850;2023-11-19T06:35:49;20.00;61.00
44863;DHT22;30597;49.628;10.850;2023-11-19T06:38:15;19.90;60.80
44863;DHT22;30597;49.628;10.850;2023-11-19T06:40:41;19.90;60.80
44863;DHT22;30597;49.628;10.850;2023-11-19T06:43:06;20.00;60.70
44863;DHT22;30597;49.628;10.850;2023-11-19T06:45:34;19.90;60.70
44863;DHT22;30597;49.628;10.850;2023-11-19T06:48:02;19.90;60.70
44863;DHT22;30597;49.628;10.850;2023-11-19T06:50:31;19.90;60.80
44863;DHT22;30597;49.628;10.850;2023-11-19T06:52:57;19.90;60.70
44863;DHT22;30597;49.628;10.850;2023-11-19T06:55:22;19.90;60.60
44863;DHT22;30597;49.628;10.850;2023-11-19T06:57:48;20.00;60.70
44863;DHT22;30597;49.628;10.850;2023-11-19T07:00:14;19.90;60.60
44863;DHT22;30597;49.628;10.850;2023-11-19T07:02:39;19.90;60.70
44863;DHT22;30597;49.628;10.850;2023-11-19T07:05:05;19.90;60.50
44863;DHT22;30597;49.628;10.850;2023-11-19T07:07:32;19.90;60.50
44863;DHT22;30597;49.628;10.850;2023-11-19T07:09:58;19.90;60.70
44863;DHT22;30597;49.628;10.850;2023-11-19T07:12:23;19.90;60.90
44863;DHT22;30597;49.628;10.850;2023-11-19T07:14:52;20.00;61.30
44863;DHT22;30597;49.628;10.850;2023-11-19T07:17:18;20.10;61.40
44863;DHT22;30597;49.628;10.850;2023-11-19T07:19:44;20.30;61.80
44863;DHT22;30597;49.628;10.850;2023-11-19T07:22:09;20.20;61.20
44863;DHT22;30597;49.628;10.850;2023-11-19T07:24:39;20.40;61.30
44863;DHT22;30597;49.628;10.850;2023-11-19T07:27:04;20.50;61.30
44863;DHT22;30597;49.628;10.850;2023-11-19T07:29:30;20.50;60.80
44863;DHT22;30597;49.628;10.850;2023-11-19T07:31:57;20.60;60.90
44863;DHT22;30597;49.628;10.850;2023-11-19T07:34:22;20.70;60.70
44863;DHT22;30597;49.628;10.850;2023-11-19T07:36:48;20.60;60.80
44863;DHT22;30597;49.628;10.850;2023-11-19T07:39:14;20.80;60.60
44863;DHT22;30597;49.628;10.850;2023-11-19T07:41:39;20.70;60.20
44863;DHT22;30597;49.628;10.850;2023-11-19T07:44:05;20.90;60.50
44863;DHT22;30597;49.628;10.850;2023-11-19T07:46:31;20.90;60.20
44863;DHT22;30597;49.628;10.850;2023-11-19T07:48:57;20.90;59.80
44863;DHT22;30597;49.628;10.850;2023-11-19T07:51:23;20.90;59.50
44863;DHT22;30597;49.628;10.850;2023-11-19T07:53:48;21.00;59.60
44863;DHT22;30597;49.628;10.850;2023-11-19T07:56:14;21.00;59.80
44863;DHT22;30597;49.628;10.850;2023-11-19T07:58:40;21.10;59.90
44863;DHT22;30597;49.628;10.850;2023-11-19T08:01:06;21.10;59.90
44863;DHT22;30597;49.628;10.850;2023-11-19T08:03:32;21.10;59.70
44863;DHT22;30597;49.628;10.850;2023-11-19T08:05:59;21.10;59.80
44863;DHT22;30597;49.628;10.850;2023-11-19T08:08:25;21.20;60.10
44863;DHT22;30597;49.628;10.850;2023-11-19T08:10:53;21.30;59.90
44863;DHT22;30597;49.628;10.850;2023-11-19T08:13:21;21.30;59.80
44863;DHT22;30597;49.628;10.850;2023-11-19T08:15:47;21.30;59.70
44863;DHT22;30597;49.628;10.850;2023-11-19T08:18:13;21.40;60.70
44863;DHT22;30597;49.628;10.850;2023-11-19T08:20:39;21.40;59.60
44863;DHT22;30597;49.628;10.850;2023-11-19T08:23:04;21.50;59.70
44863;DHT22;30597;49.628;10.850;2023-11-19T08:25:30;21.50;59.60
44863;DHT22;30597;49.628;10.850;2023-11-19T08:27:56;21.60;59.60
44863;DHT22;30597;49.628;10.850;2023-11-19T08:30:21;21.60;59.60
44863;DHT22;30597;49.628;10.850;2023-11-19T08:32:47;21.50;59.80
44863;DHT22;30597;49.628;10.850;2023-11-19T08:35:12;21.60;59.80
44863;DHT22;30597;49.628;10.850;2023-11-19T08:37:38;21.70;59.80
44863;DHT22;30597;49.628;10.850;2023-11-19T08:40:04;21.70;59.70
44863;DHT22;30597;49.628;10.850;2023-11-19T08:42:30;21.70;59.50
44863;DHT22;30597;49.628;10.850;2023-11-19T08:44:56;21.70;59.60
44863;DHT22;30597;49.628;10.850;2023-11-19T08:47:22;21.70;59.50
44863;DHT22;30597;49.628;10.850;2023-11-19T08:49:51;21.70;59.50
44863;DHT22;30597;49.628;10.850;2023-11-19T08:52:17;21.70;59.50
44863;DHT22;30597;49.628;10.850;2023-11-19T08:54:43;21.70;59.40
44863;DHT22;30597;49.628;10.850;2023-11-19T08:57:09;21.80;59.50
44863;DHT22;30597;49.628;10.850;2023-11-19T08:59:35;21.90;59.60
44863;DHT22;30597;49.628;10.850;2023-11-19T09:02:03;21.90;59.60
44863;DHT22;30597;49.628;10.850;2023-11-19T09:04:29;21.80;59.50
44863;DHT22;30597;49.628;10.850;2023-11-19T09:06:54;21.90;59.60
44863;DHT22;30597;49.628;10.850;2023-11-19T09:09:21;21.90;59.60
44863;DHT22;30597;49.628;10.850;2023-11-19T09:11:46;21.90;59.50
44863;DHT22;30597;49.628;10.850;2023-11-19T09:14:12;21.90;59.50
44863;DHT22;30597;49.628;10.850;2023-11-19T09:16:37;21.90;59.40
44863;DHT22;30597;49.628;10.850;2023-11-19T09:19:03;21.80;59.30
44863;DHT22;30597;49.628;10.850;2023-11-19T09:21:29;21.90;59.50
44863;DHT22;30597;49.628;10.850;2023-11-19T09:23:55;21.80;59.40
44863;DHT22;30597;49.628;10.850;2023-11-19T09:26:21;21.80;59.40
44863;DHT22;30597;49.628;10.850;2023-11-19T09:28:46;21.70;59.40
44863;DHT22;30597;49.628;10.850;2023-11-19T09:31:18;21.80;59.50
44863;DHT22;30597;49.628;10.850;2023-11-19T09:33:44;21.80;59.50
44863;DHT22;30597;49.628;10.850;2023-11-19T09:36:12;21.70;60.00
44863;DHT22;30597;49.628;10.850;2023-11-19T09:38:42;21.80;60.10
44863;DHT22;30597;49.628;10.850;2023-11-19T09:41:09;21.80;59.70
44863;DHT22;30597;49.628;10.850;2023-11-19T09:43:35;21.80;59.40
44863;DHT22;30597;49.628;10.850;2023-11-19T09:46:09;21.80;59.30
44863;DHT22;30597;49.628;10.850;2023-11-19T09:48:39;21.80;59.40
44863;DHT22;30597;49.628;10.850;2023-11-19T09:51:09;21.80;59.80
44863;DHT22;30597;49.628;10.850;2023-11-19T09:53:35;21.90;60.20
44863;DHT22;30597;49.628;10.850;2023-11-19T09:56:03;21.70;60.10
44863;DHT22;30597;49.628;10.850;2023-11-19T09:58:32;21.80;58.60
44863;DHT22;30597;49.628;10.850;2023-11-19T10:01:00;21.80;57.70
44863;DHT22;30597;49.628;10.850;2023-11-19T10:03:32;21.60;58.00
44863;DHT22;30597;49.628;10.850;2023-11-19T10:05:58;21.70;58.60
44863;DHT22;30597;49.628;10.850;2023-11-19T10:08:24;21.70;58.70
44863;DHT22;30597;49.628;10.850;2023-11-19T10:10:49;21.70;58.10
44863;DHT22;30597;49.628;10.850;2023-11-19T10:13:15;21.70;57.80
44863;DHT22;30597;49.628;10.850;2023-11-19T10:15:41;21.80;57.70
44863;DHT22;30597;49.628;10.850;2023-11-19T10:18:08;21.80;57.80
44863;DHT22;30597;49.628;10.850;2023-11-19T10:20:38;21.90;57.70
44863;DHT22;30597;49.628;10.850;2023-11-19T10:23:05;21.90;57.60
44863;DHT22;30597;49.628;10.850;2023-11-19T10:25:32;22.00;57.50
44863;DHT22;30597;49.628;10.850;2023-11-19T10:27:59;21.90;57.60
44863;DHT22;30597;49.628;10.850;2023-11-19T10:30:27;21.90;57.60
44863;DHT22;30597;49.628;10.850;2023-11-19T10:33:14;21.90;57.60
44863;DHT22;30597;49.628;10.850;2023-11-19T10:35:52;21.80;57.60
44863;DHT22;30597;49.628;10.850;2023-11-19T10:38:19;21.90;57.70
44863;DHT22;30597;49.628;10.850;2023-11-19T10:40:44;21.70;57.60
44863;DHT22;30597;49.628;10.850;2023-11-19T10:43:10;21.70;57.60
44863;DHT22;30597;49.628;10.850;2023-11-19T10:45:38;21.80;57.70
44863;DHT22;30597;49.628;10.850;2023-11-19T10:48:05;21.90;57.70
44863;DHT22;30597;49.628;10.850;2023-11-19T10:50:34;21.80;57.60
44863;DHT22;30597;49.628;10.850;2023-11-19T10:53:01;21.70;57.40
44863;DHT22;30597;49.628;10.850;2023-11-19T10:55:28;21.80;57.40
44863;DHT22;30597;49.628;10.850;2023-11-19T10:58:02;21.90;57.40
44863;DHT22;30597;49.628;10.850;2023-11-19T11:00:46;21.70;57.30
44863;DHT22;30597;49.628;10.850;2023-11-19T11:03:18;21.70;57.00
44863;DHT22;30597;49.628;10.850;2023-11-19T11:05:47;21.80;57.30
44863;DHT22;30597;49.628;10.850;2023-11-19T11:08:14;21.70;57.00
44863;DHT22;30597;49.628;10.850;2023-11-19T11:10:44;21.60;57.10
44863;DHT22;30597;49.628;10.850;2023-11-19T11:13:10;21.60;56.90
44863;DHT22;30597;49.628;10.850;2023-11-19T11:15:37;21.60;57.00
44863;DHT22;30597;49.628;10.850;2023-11-19T11:18:04;21.50;57.10
44863;DHT22;30597;49.628;10.850;2023-11-19T11:20:33;21.50;57.00
44863;DHT22;30597;49.628;10.850;2023-11-19T11:28:52;21.40;56.70
44863;DHT22;30597;49.628;10.850;2023-11-19T11:39:34;21.60;56.60
44863;DHT22;30597;49.628;10.850;2023-11-19T11:50:18;21.80;56.20
44863;DHT22;30597;49.628;10.850;2023-11-19T11:55:27;21.80;56.40
44863;DHT22;30597;49.628;10.850;2023-11-19T11:57:56;21.90;56.70
44863;DHT22;30597;49.628;10.850;2023-11-19T12:00:42;21.90;56.80
44863;DHT22;30597;49.628;10.850;2023-11-19T12:03:08;22.00;56.70
44863;DHT22;30597;49.628;10.850;2023-11-19T12:05:47;22.10;56.80
44863;DHT22;30597;49.628;10.850;2023-11-19T12:08:14;22.20;56.80
44863;DHT22;30597;49.628;10.850;2023-11-19T12:10:51;22.20;57.10
44863;DHT22;30597;49.628;10.850;2023-11-19T12:13:19;22.20;57.00
44863;DHT22;30597;49.628;10.850;2023-11-19T12:16:08;22.20;57.20
44863;DHT22;30597;49.628;10.850;2023-11-19T12:18:34;22.20;57.20
44863;DHT22;30597;49.628;10.850;2023-11-19T12:21:00;22.20;57.30
44863;DHT22;30597;49.628;10.850;2023-11-19T12:23:29;22.20;57.10
44863;DHT22;30597;49.628;10.850;2023-11-19T12:25:56;22.20;57.30
44863;DHT22;30597;49.628;10.850;2023-11-19T12:28:22;22.30;57.10
44863;DHT22;30597;49.628;10.850;2023-11-19T12:30:49;22.20;57.00
44863;DHT22;30597;49.628;10.850;2023-11-19T12:33:15;22.20;57.20
44863;DHT22;30597;49.628;10.850;2023-11-19T12:35:46;22.30;57.50
44863;DHT22;30597;49.628;10.850;2023-11-19T12:38:23;22.20;57.40
44863;DHT22;30597;49.628;10.850;2023-11-19T12:41:06;22.30;57.50
44863;DHT22;30597;49.628;10.850;2023-11-19T12:43:32;22.40;57.40
44863;DHT22;30597;49.628;10.850;2023-11-19T12:46:00;22.40;57.60
44863;DHT22;30597;49.628;10.850;2023-11-19T12:48:25;22.40;57.50
44863;DHT22;30597;49.628;10.850;2023-11-19T12:50:58;22.40;57.30
44863;DHT22;30597;49.628;10.850;2023-11-19T12:53:26;22.30;57.50
44863;DHT22;30597;49.628;10.850;2023-11-19T12:55:53;22.30;57.90
44863;DHT22;30597;49.628;10.850;2023-11-19T12:58:32;22.40;57.90
44863;DHT22;30597;49.628;10.850;2023-11-19T13:01:06;22.40;57.90
44863;DHT22;30597;49.628;10.850;2023-11-19T13:03:32;22.30;57.80
44863;DHT22;30597;49.628;10.850;2023-11-19T13:06:10;22.40;58.00
44863;DHT22;30597;49.628;10.850;2023-11-19T13:08:38;22.40;57.90
44863;DHT22;30597;49.628;10.850;2023-11-19T13:11:04;22.30;57.80
44863;DHT22;30597;49.628;10.850;2023-11-19T13:13:29;22.40;57.80
44863;DHT22;30597;49.628;10.850;2023-11-19T13:16:05;22.40;57.90
44863;DHT22;30597;49.628;10.850;2023-11-19T13:18:34;22.30;57.80
44863;DHT22;30597;49.628;10.850;2023-11-19T13:21:00;22.30;57.70
44863;DHT22;30597;49.628;10.850;2023-11-19T13:23:25;22.30;57.90
44863;DHT22;30597;49.628;10.850;2023-11-19T13:25:51;22.20;58.00
44863;DHT22;30597;49.628;10.850;2023-11-19T13:28:17;22.20;57.70
44863;DHT22;30597;49.628;10.850;2023-11-19T13:30:43;22.20;58.00
44863;DHT22;30597;49.628;10.850;2023-11-19T13:33:08;22.20;58.10
44863;DHT22;30597;49.628;10.850;2023-11-19T13:35:37;22.30;58.20
44863;DHT22;30597;49.628;10.850;2023-11-19T13:38:05;22.20;58.30
44863;DHT22;30597;49.628;10.850;2023-11-19T13:40:31;22.20;58.40
44863;DHT22;30597;49.628;10.850;2023-11-19T13:42:56;22.30;58.20
44863;DHT22;30597;49.628;10.850;2023-11-19T13:45:22;22.10;58.00
44863;DHT22;30597;49.628;10.850;2023-11-19T13:47:47;22.10;58.10
44863;DHT22;30597;49.628;10.850;2023-11-19T13:50:16;22.10;56.50
44863;DHT22;30597;49.628;10.850;2023-11-19T13:52:44;22.10;56.70
44863;DHT22;30597;49.628;10.850;2023-11-19T13:55:12;22.10;56.80
44863;DHT22;30597;49.628;10.850;2023-11-19T13:57:38;22.10;57.00
44863;DHT22;30597;49.628;10.850;2023-11-19T14:00:06;22.20;57.10
44863;DHT22;30597;49.628;10.850;2023-11-19T14:02:33;22.10;56.90
44863;DHT22;30597;49.628;10.850;2023-11-19T14:04:59;22.30;57.30
44863;DHT22;30597;49.628;10.850;2023-11-19T14:07:24;22.20;57.10
44863;DHT22;30597;49.628;10.850;2023-11-19T14:09:50;22.20;56.90
44863;DHT22;30597;49.628;10.850;2023-11-19T14:12:16;22.20;56.70
44863;DHT22;30597;49.628;10.850;2023-11-19T14:14:41;22.30;56.80
44863;DHT22;30597;49.628;10.850;2023-11-19T14:17:07;22.20;55.50
44863;DHT22;30597;49.628;10.850;2023-11-19T14:19:33;22.20;55.00
44863;DHT22;30597;49.628;10.850;2023-11-19T14:21:59;22.20;54.80
44863;DHT22;30597;49.628;10.850;2023-11-19T14:24:25;22.20;55.00
44863;DHT22;30597;49.628;10.850;2023-11-19T14:26:51;22.10;53.80
44863;DHT22;30597;49.628;10.850;2023-11-19T14:29:17;22.00;53.00
44863;DHT22;30597;49.628;10.850;2023-11-19T14:31:43;21.90;52.70
44863;DHT22;30597;49.628;10.850;2023-11-19T14:34:08;21.90;52.30
44863;DHT22;30597;49.628;10.850;2023-11-19T14:36:34;21.80;51.90
44863;DHT22;30597;49.628;10.850;2023-11-19T14:39:00;21.80;51.70
44863;DHT22;30597;49.628;10.850;2023-11-19T14:41:26;21.90;51.50
44863;DHT22;30597;49.628;10.850;2023-11-19T14:43:52;21.70;51.30
44863;DHT22;30597;49.628;10.850;2023-11-19T14:46:18;21.70;51.20
44863;DHT22;30597;49.628;10.850;2023-11-19T14:48:43;21.70;51.20
44863;DHT22;30597;49.628;10.850;2023-11-19T14:51:09;21.70;51.30
44863;DHT22;30597;49.628;10.850;2023-11-19T14:53:35;21.70;51.10
44863;DHT22;30597;49.628;10.850;2023-11-19T14:56:01;21.60;51.70
44863;DHT22;30597;49.628;10.850;2023-11-19T14:58:27;21.60;51.60
44863;DHT22;30597;49.628;10.850;2023-11-19T15:00:53;21.70;51.70
44863;DHT22;30597;49.628;10.850;2023-11-19T15:03:19;21.60;51.70
44863;DHT22;30597;49.628;10.850;2023-11-19T15:05:45;21.60;51.80
44863;DHT22;30597;49.628;10.850;2023-11-19T15:08:14;21.60;51.80
44863;DHT22;30597;49.628;10.850;2023-11-19T15:10:42;21.70;51.80
44863;DHT22;30597;49.628;10.850;2023-11-19T15:13:10;21.80;51.90
44863;DHT22;30597;49.628;10.850;2023-11-19T15:15:35;21.70;51.70
44863;DHT22;30597;49.628;10.850;2023-11-19T15:18:01;21.60;51.50
44863;DHT22;30597;49.628;10.850;2023-11-19T15:20:26;21.60;51.30
44863;DHT22;30597;49.628;10.850;2023-11-19T15:22:55;21.60;51.30
44863;DHT22;30597;49.628;10.850;2023-11-19T15:25:21;21.70;51.10
44863;DHT22;30597;49.628;10.850;2023-11-19T15:27:48;21.70;51.00
44863;DHT22;30597;49.628;10.850;2023-11-19T15:30:13;21.60;50.80
44863;DHT22;30597;49.628;10.850;2023-11-19T15:32:39;21.70;50.70
44863;DHT22;30597;49.628;10.850;2023-11-19T15:35:06;21.90;51.80
44863;DHT22;30597;49.628;10.850;2023-11-19T15:37:32;21.90;51.80
44863;DHT22;30597;49.628;10.850;2023-11-19T15:39:58;22.00;52.00